createdAt,value
2019-03-20T00:00:56.799Z,90.60
2019-03-20T00:03:26.403Z,90.70
2019-03-20T00:05:56.904Z,90.80
2019-03-20T00:08:26.195Z,90.90
2019-03-20T00:10:56.289Z,91.00
2019-03-20T00:13:25.997Z,90.90
2019-03-20T00:15:55.796Z,91.00
2019-03-20T00:18:25.995Z,91.00
2019-03-20T00:20:56.000Z,91.00
2019-03-20T00:23:25.630Z,91.10
2019-03-20T00:25:55.901Z,91.20
2019-03-20T00:28:26.760Z,91.20
2019-03-20T00:30:56.533Z,91.60
2019-03-20T00:33:26.020Z,91.30
2019-03-20T00:35:56.486Z,91.40
2019-03-20T00:38:26.739Z,91.40
2019-03-20T00:40:56.805Z,91.40
2019-03-20T00:43:26.169Z,91.40
2019-03-20T00:45:56.208Z,91.50
2019-03-20T00:48:25.694Z,91.60
2019-03-20T00:50:55.356Z,91.60
2019-03-20T00:53:24.973Z,91.60
2019-03-20T00:55:54.883Z,91.60
2019-03-20T00:58:24.627Z,91.60
2019-03-20T01:00:54.353Z,91.60
2019-03-20T01:03:23.662Z,91.50
2019-03-20T01:05:54.186Z,91.60
2019-03-20T01:08:23.548Z,91.60
2019-03-20T01:10:53.214Z,91.60
2019-03-20T01:13:22.757Z,91.70
2019-03-20T01:15:52.344Z,91.70
2019-03-20T01:18:22.587Z,91.70
2019-03-20T01:20:52.118Z,91.70
2019-03-20T01:23:21.759Z,91.80
2019-03-20T01:25:51.377Z,91.80
2019-03-20T01:28:20.931Z,91.80
2019-03-20T01:30:50.544Z,91.80
2019-03-20T01:33:20.316Z,91.90
2019-03-20T01:35:49.652Z,92.10
2019-03-20T01:38:19.144Z,92.10
2019-03-20T01:40:48.745Z,92.10
2019-03-20T01:43:18.057Z,92.00
2019-03-20T01:45:47.396Z,92.00
2019-03-20T01:48:16.937Z,92.00
2019-03-20T01:50:46.315Z,92.30
2019-03-20T01:53:15.583Z,92.10
2019-03-20T01:55:44.863Z,92.10
2019-03-20T01:58:14.195Z,92.10
2019-03-20T02:00:43.479Z,92.10
2019-03-20T02:03:12.787Z,92.10
2019-03-20T02:05:42.063Z,92.10
2019-03-20T02:08:11.375Z,92.30
2019-03-20T02:10:40.663Z,92.20
2019-03-20T02:13:09.905Z,92.10
2019-03-20T02:15:39.816Z,92.10
2019-03-20T02:18:09.161Z,92.00
2019-03-20T02:20:38.475Z,92.30
2019-03-20T02:23:07.760Z,92.20
2019-03-20T02:25:37.337Z,92.30
2019-03-20T02:28:07.034Z,92.30
2019-03-20T02:30:36.576Z,92.30
2019-03-20T02:33:05.951Z,92.70
2019-03-20T02:35:50.297Z,92.40
2019-03-20T02:38:06.440Z,92.30
2019-03-20T02:40:35.848Z,92.30
2019-03-20T02:43:05.523Z,92.40
2019-03-20T02:45:34.950Z,92.40
2019-03-20T02:48:04.394Z,92.40
2019-03-20T02:50:33.849Z,92.50
2019-03-20T02:53:03.241Z,92.50
2019-03-20T02:55:35.783Z,92.60
2019-03-20T02:58:05.449Z,92.60
2019-03-20T03:00:34.807Z,92.60
2019-03-20T03:03:04.207Z,92.60
2019-03-20T03:05:33.765Z,92.70
2019-03-20T03:08:03.085Z,92.80
2019-03-20T03:10:32.579Z,92.70
2019-03-20T03:13:04.644Z,92.70
2019-03-20T03:15:33.969Z,92.70
2019-03-20T03:18:03.321Z,92.70
2019-03-20T03:20:32.873Z,92.80
2019-03-20T03:23:02.123Z,92.90
2019-03-20T03:25:31.436Z,92.90
2019-03-20T03:28:00.744Z,92.90
2019-03-20T03:30:30.020Z,93.00
2019-03-20T03:33:00.206Z,93.10
2019-03-20T03:35:29.552Z,93.20
2019-03-20T03:37:59.161Z,93.20
2019-03-20T03:40:28.711Z,93.20
2019-03-20T03:42:58.276Z,93.10
2019-03-20T03:45:27.561Z,93.10
2019-03-20T03:47:56.893Z,93.10
2019-03-20T03:50:26.522Z,93.00
2019-03-20T03:52:56.194Z,93.00
2019-03-20T03:55:26.158Z,93.10
2019-03-20T03:57:56.009Z,93.10
2019-03-20T04:00:25.337Z,93.20
2019-03-20T04:02:54.886Z,93.30
2019-03-20T04:05:24.183Z,93.30
2019-03-20T04:07:53.806Z,93.40
2019-03-20T04:10:23.357Z,93.70
2019-03-20T04:12:52.677Z,93.30
2019-03-20T04:15:21.986Z,93.30
2019-03-20T04:17:51.304Z,93.30
2019-03-20T04:20:21.054Z,93.30
2019-03-20T04:22:50.440Z,93.30
2019-03-20T04:25:19.747Z,93.30
2019-03-20T04:27:49.104Z,93.60
2019-03-20T04:30:18.673Z,93.20
2019-03-20T04:32:48.040Z,93.40
2019-03-20T04:35:17.550Z,93.30
2019-03-20T04:37:46.823Z,93.30
2019-03-20T04:40:17.010Z,93.30
2019-03-20T04:42:46.373Z,93.40
2019-03-20T04:45:15.782Z,93.40
2019-03-20T04:47:45.100Z,93.30
2019-03-20T04:50:14.424Z,93.30
2019-03-20T04:52:43.726Z,93.40
2019-03-20T04:55:13.453Z,93.30
2019-03-20T04:57:42.765Z,93.30
2019-03-20T05:00:13.984Z,93.40
2019-03-20T05:02:43.871Z,93.40
2019-03-20T05:05:13.543Z,93.30
2019-03-20T05:07:42.880Z,93.20
2019-03-20T05:10:12.780Z,93.20
2019-03-20T05:12:42.375Z,93.20
2019-03-20T05:15:12.183Z,93.40
2019-03-20T05:17:41.492Z,93.40
2019-03-20T05:20:12.526Z,93.50
2019-03-20T05:22:41.868Z,93.50
2019-03-20T05:25:11.163Z,93.50
2019-03-20T05:27:40.758Z,93.50
2019-03-20T05:30:11.471Z,93.60
2019-03-20T05:32:40.763Z,93.60
2019-03-20T05:35:10.810Z,93.50
2019-03-20T05:37:42.703Z,93.40
2019-03-20T05:40:13.556Z,93.40
2019-03-20T05:42:42.858Z,93.50
2019-03-20T05:45:13.660Z,93.50
2019-03-20T05:47:43.216Z,93.50
2019-03-20T05:50:13.059Z,93.40
2019-03-20T05:52:42.415Z,93.40
2019-03-20T05:55:11.722Z,93.40
2019-03-20T05:57:41.357Z,93.20
2019-03-20T06:00:12.986Z,93.10
2019-03-20T06:02:42.269Z,93.10
2019-03-20T06:05:11.539Z,93.10
2019-03-20T06:07:41.425Z,93.00
2019-03-20T06:10:12.167Z,92.80
2019-03-20T06:12:41.522Z,92.90
2019-03-20T06:15:11.320Z,92.80
2019-03-20T06:17:40.932Z,92.80
2019-03-20T06:20:10.311Z,92.80
2019-03-20T06:22:39.596Z,92.70
2019-03-20T06:25:09.241Z,92.60
2019-03-20T06:27:38.537Z,92.90
2019-03-20T06:30:10.290Z,92.60
2019-03-20T06:32:39.835Z,92.50
2019-03-20T06:35:09.404Z,92.30
2019-03-20T06:37:38.689Z,92.20
2019-03-20T06:40:08.931Z,92.00
2019-03-20T06:42:38.311Z,92.00
2019-03-20T06:45:08.899Z,91.90
2019-03-20T06:47:38.487Z,91.70
2019-03-20T06:50:10.936Z,91.60
2019-03-20T06:52:40.492Z,91.30
2019-03-20T06:55:09.937Z,91.10
2019-03-20T06:57:39.500Z,90.60
2019-03-20T07:00:43.879Z,90.50
2019-03-20T07:03:20.281Z,90.30
2019-03-20T07:06:09.282Z,89.60
2019-03-20T07:08:43.919Z,88.40
2019-03-20T07:11:12.866Z,87.50
2019-03-20T07:13:42.143Z,86.20
2019-03-20T07:16:11.427Z,85.70
2019-03-20T07:18:41.019Z,84.80
2019-03-20T07:21:11.713Z,83.70
2019-03-20T07:23:41.280Z,82.60
2019-03-20T07:26:10.592Z,81.80
2019-03-20T07:28:39.875Z,80.80
2019-03-20T07:31:15.095Z,79.20
2019-03-20T07:33:40.172Z,78.30
2019-03-20T07:36:09.568Z,78.30
2019-03-20T07:38:38.887Z,77.60
2019-03-20T07:41:08.241Z,76.70
2019-03-20T07:43:37.873Z,75.70
2019-03-20T07:46:07.468Z,75.30
2019-03-20T07:48:36.842Z,75.20
2019-03-20T07:51:06.144Z,74.90
2019-03-20T07:53:35.416Z,74.20
2019-03-20T07:56:04.957Z,73.80
2019-03-20T07:58:34.560Z,72.80
2019-03-20T08:01:04.077Z,72.50
2019-03-20T08:03:33.692Z,72.00
2019-03-20T08:06:03.257Z,72.10
2019-03-20T08:08:32.863Z,71.50
2019-03-20T08:11:02.503Z,70.80
2019-03-20T08:13:32.127Z,70.50
2019-03-20T08:16:03.850Z,69.30
2019-03-20T08:18:32.556Z,68.90
2019-03-20T08:21:01.896Z,67.50
2019-03-20T08:23:33.079Z,67.00
2019-03-20T08:26:02.508Z,67.20
2019-03-20T08:28:31.788Z,66.60
2019-03-20T08:31:01.084Z,67.00
2019-03-20T08:33:31.836Z,66.40
2019-03-20T08:36:01.376Z,65.60
2019-03-20T08:38:31.036Z,65.10
2019-03-20T08:41:00.453Z,68.30
2019-03-20T08:43:29.867Z,64.20
2019-03-20T08:46:01.432Z,64.20
2019-03-20T08:48:30.836Z,63.60
2019-03-20T08:51:00.423Z,63.90
2019-03-20T08:53:29.975Z,63.50
2019-03-20T08:56:00.074Z,63.70
2019-03-20T08:58:29.628Z,63.70
2019-03-20T09:00:59.196Z,64.00
2019-03-20T09:03:28.528Z,63.40
2019-03-20T09:05:58.093Z,62.60
2019-03-20T09:08:29.701Z,62.30
2019-03-20T09:10:58.811Z,62.00
2019-03-20T09:13:28.139Z,61.90
2019-03-20T09:15:57.713Z,61.40
2019-03-20T09:18:27.078Z,61.40
2019-03-20T09:20:56.668Z,60.00
2019-03-20T09:23:26.118Z,59.50
2019-03-20T09:25:55.380Z,59.30
2019-03-20T09:28:24.684Z,58.90
2019-03-20T09:30:54.251Z,58.70
2019-03-20T09:33:23.531Z,59.60
2019-03-20T09:35:53.203Z,58.90
2019-03-20T09:38:22.597Z,57.90
2019-03-20T09:40:51.868Z,57.20
2019-03-20T09:43:21.440Z,57.20
2019-03-20T09:45:51.309Z,56.40
2019-03-20T09:48:21.165Z,56.40
2019-03-20T09:50:50.764Z,54.90
2019-03-20T09:53:20.046Z,55.70
2019-03-20T09:55:49.628Z,53.90
2019-03-20T09:58:19.303Z,53.50
2019-03-20T10:00:49.178Z,53.00
2019-03-20T10:03:18.494Z,52.30
2019-03-20T10:05:48.048Z,52.10
2019-03-20T10:08:18.047Z,52.10
2019-03-20T10:10:47.361Z,51.50
2019-03-20T10:13:16.826Z,50.90
2019-03-20T10:15:46.077Z,50.70
2019-03-20T10:18:15.701Z,50.60
2019-03-20T10:20:45.023Z,50.70
2019-03-20T10:23:15.646Z,50.40
2019-03-20T10:25:45.237Z,49.90
2019-03-20T10:28:14.529Z,49.60
2019-03-20T10:30:43.806Z,49.60
2019-03-20T10:33:13.412Z,48.70
2019-03-20T10:35:50.160Z,48.60
2019-03-20T10:38:13.999Z,49.00
2019-03-20T10:40:43.320Z,49.50
2019-03-20T10:43:13.181Z,49.20
2019-03-20T10:45:42.739Z,49.00
2019-03-20T10:48:12.160Z,48.90
2019-03-20T10:50:41.453Z,48.80
2019-03-20T10:53:11.138Z,48.80
2019-03-20T10:55:41.687Z,48.20
2019-03-20T10:58:11.004Z,48.40
2019-03-20T11:00:40.916Z,48.80
2019-03-20T11:03:12.283Z,49.50
2019-03-20T11:05:41.611Z,50.20
2019-03-20T11:08:12.922Z,49.30
2019-03-20T11:10:42.012Z,50.00
2019-03-20T11:13:11.643Z,49.80
2019-03-20T11:15:40.927Z,50.40
2019-03-20T11:18:10.323Z,50.20
2019-03-20T11:20:39.751Z,50.50
2019-03-20T11:23:09.145Z,51.10
2019-03-20T11:25:38.494Z,51.80
2019-03-20T11:28:07.895Z,51.00
2019-03-20T11:30:37.388Z,50.70
2019-03-20T11:33:06.739Z,50.60
2019-03-20T11:35:36.298Z,50.80
2019-03-20T11:38:05.997Z,50.20
2019-03-20T11:40:37.988Z,50.20
2019-03-20T11:43:07.287Z,50.10
2019-03-20T11:45:36.639Z,50.70
2019-03-20T11:48:06.159Z,51.00
2019-03-20T11:50:37.221Z,52.10
2019-03-20T11:53:06.943Z,52.00
2019-03-20T11:55:36.321Z,53.20
2019-03-20T11:58:06.126Z,53.50
2019-03-20T12:00:36.238Z,52.80
2019-03-20T12:03:05.766Z,53.20
2019-03-20T12:05:35.067Z,52.70
2019-03-20T12:08:04.866Z,52.70
2019-03-20T12:10:34.528Z,52.80
2019-03-20T12:13:04.149Z,52.40
2019-03-20T12:15:33.776Z,52.40
2019-03-20T12:18:03.076Z,52.20
2019-03-20T12:20:32.640Z,52.60
2019-03-20T12:23:02.218Z,52.70
2019-03-20T12:25:31.526Z,53.50
2019-03-20T12:28:00.824Z,54.00
2019-03-20T12:30:30.350Z,52.70
2019-03-20T12:32:59.759Z,53.00
2019-03-20T12:35:30.233Z,52.10
2019-03-20T12:37:59.723Z,51.30
2019-03-20T12:40:30.312Z,50.30
2019-03-20T12:43:00.136Z,49.60
2019-03-20T12:45:31.504Z,48.90
2019-03-20T12:48:01.161Z,48.40
2019-03-20T12:50:30.876Z,48.20
2019-03-20T12:53:01.752Z,47.20
2019-03-20T12:55:32.570Z,49.00
2019-03-20T12:58:02.064Z,49.00
2019-03-20T13:00:31.388Z,48.40
2019-03-20T13:03:00.712Z,48.20
2019-03-20T13:05:30.389Z,48.10
2019-03-20T13:08:05.695Z,47.60
2019-03-20T13:10:31.109Z,47.30
2019-03-20T13:13:00.420Z,47.50
2019-03-20T13:15:29.948Z,47.60
2019-03-20T13:17:59.272Z,48.10
2019-03-20T13:20:28.608Z,48.10
2019-03-20T13:23:00.908Z,47.50
2019-03-20T13:25:30.504Z,46.20
2019-03-20T13:27:59.822Z,46.00
2019-03-20T13:30:37.323Z,46.70
2019-03-20T13:33:06.747Z,47.20
2019-03-20T13:35:36.438Z,46.90
2019-03-20T13:38:06.145Z,46.90
2019-03-20T13:40:35.647Z,46.60
2019-03-20T13:43:05.175Z,46.60
2019-03-20T13:45:35.346Z,46.50
2019-03-20T13:48:04.880Z,46.10
2019-03-20T13:50:34.333Z,46.70
2019-03-20T13:53:03.888Z,45.60
2019-03-20T13:55:33.779Z,45.30
2019-03-20T13:58:03.919Z,45.40
2019-03-20T14:00:34.618Z,45.60
2019-03-20T14:03:04.675Z,44.80
2019-03-20T14:05:34.419Z,44.90
2019-03-20T14:08:03.742Z,45.20
2019-03-20T14:10:33.462Z,45.20
2019-03-20T14:13:03.156Z,44.80
2019-03-20T14:15:32.559Z,44.90
2019-03-20T14:18:02.141Z,45.00
2019-03-20T14:20:31.857Z,45.30
2019-03-20T14:23:01.410Z,45.50
2019-03-20T14:25:30.779Z,45.80
2019-03-20T14:28:00.589Z,46.80
2019-03-20T14:30:30.293Z,46.60
2019-03-20T14:32:59.750Z,46.30
2019-03-20T14:35:29.398Z,45.10
2019-03-20T14:37:59.004Z,44.80
2019-03-20T14:40:35.415Z,44.20
2019-03-20T14:43:00.610Z,44.70
2019-03-20T14:45:30.307Z,44.30
2019-03-20T14:47:59.888Z,44.70
2019-03-20T14:50:29.363Z,44.70
2019-03-20T14:52:58.933Z,44.40
2019-03-20T14:55:28.725Z,44.60
2019-03-20T14:57:58.135Z,44.30
2019-03-20T15:00:27.746Z,44.80
2019-03-20T15:02:57.387Z,43.90
2019-03-20T15:05:26.991Z,43.30
2019-03-20T15:07:56.392Z,43.80
2019-03-20T15:10:26.197Z,43.80
2019-03-20T15:12:55.533Z,44.20
2019-03-20T15:15:33.954Z,44.70
2019-03-20T15:18:03.260Z,45.10
2019-03-20T15:20:32.580Z,45.10
2019-03-20T15:23:02.014Z,45.40
2019-03-20T15:25:31.637Z,45.20
2019-03-20T15:28:01.225Z,45.30
2019-03-20T15:30:30.550Z,45.20
2019-03-20T15:32:59.911Z,45.30
2019-03-20T15:35:29.311Z,46.10
2019-03-20T15:37:58.959Z,46.60
2019-03-20T15:40:28.522Z,47.90
2019-03-20T15:42:58.285Z,47.20
2019-03-20T15:45:27.983Z,47.30
2019-03-20T15:47:57.440Z,47.50
2019-03-20T15:50:26.950Z,46.90
2019-03-20T15:52:56.624Z,47.10
2019-03-20T15:55:38.414Z,47.00
2019-03-20T15:58:07.791Z,47.30
2019-03-20T16:00:37.424Z,47.30
2019-03-20T16:03:09.771Z,47.80
2019-03-20T16:05:39.054Z,47.30
2019-03-20T16:08:09.166Z,48.00
2019-03-20T16:10:38.723Z,48.70
2019-03-20T16:13:08.316Z,48.60
2019-03-20T16:15:37.979Z,48.50
2019-03-20T16:18:07.511Z,48.50
2019-03-20T16:20:37.138Z,48.60
2019-03-20T16:23:06.758Z,48.70
2019-03-20T16:25:36.128Z,49.30
2019-03-20T16:28:05.782Z,49.70
2019-03-20T16:30:35.088Z,50.10
2019-03-20T16:33:04.404Z,50.30
2019-03-20T16:35:33.676Z,50.50
2019-03-20T16:38:02.995Z,51.00
2019-03-20T16:40:34.417Z,51.30
2019-03-20T16:43:04.352Z,51.90
2019-03-20T16:45:33.643Z,51.80
2019-03-20T16:48:02.938Z,52.40
2019-03-20T16:50:32.539Z,52.90
2019-03-20T16:53:01.818Z,53.20
2019-03-20T16:55:31.211Z,53.70
2019-03-20T16:58:00.531Z,53.70
2019-03-20T17:00:30.260Z,54.20
2019-03-20T17:02:59.600Z,54.50
2019-03-20T17:05:29.551Z,54.60
2019-03-20T17:07:59.090Z,55.00
2019-03-20T17:10:30.714Z,55.60
2019-03-20T17:13:00.106Z,55.40
2019-03-20T17:15:30.003Z,55.90
2019-03-20T17:17:59.583Z,56.30
2019-03-20T17:20:28.955Z,57.30
2019-03-20T17:22:58.573Z,56.90
2019-03-20T17:25:27.865Z,58.40
2019-03-20T17:27:57.423Z,57.60
2019-03-20T17:30:32.345Z,57.80
2019-03-20T17:33:02.045Z,58.50
2019-03-20T17:35:32.330Z,58.80
2019-03-20T17:38:02.350Z,59.10
2019-03-20T17:40:31.695Z,59.60
2019-03-20T17:43:01.089Z,59.80
2019-03-20T17:45:31.236Z,60.00
2019-03-20T17:48:00.757Z,60.00
2019-03-20T17:50:30.597Z,60.20
2019-03-20T17:53:00.045Z,60.30
2019-03-20T17:55:33.270Z,60.70
2019-03-20T17:58:02.901Z,61.20
2019-03-20T18:00:36.099Z,61.60
2019-03-20T18:03:06.686Z,61.90
2019-03-20T18:05:36.150Z,62.40
2019-03-20T18:08:05.820Z,62.90
2019-03-20T18:10:35.389Z,63.40
2019-03-20T18:13:05.340Z,63.90
2019-03-20T18:15:34.727Z,64.40
2019-03-20T18:18:04.972Z,64.90
2019-03-20T18:20:35.006Z,65.10
2019-03-20T18:23:08.464Z,65.60
2019-03-20T18:25:38.516Z,66.00
2019-03-20T18:28:07.903Z,66.70
2019-03-20T18:30:40.338Z,67.20
2019-03-20T18:33:09.678Z,67.50
2019-03-20T18:35:39.006Z,67.70
2019-03-20T18:38:09.270Z,68.10
2019-03-20T18:40:39.698Z,68.50
2019-03-20T18:43:09.451Z,68.80
2019-03-20T18:45:38.799Z,69.10
2019-03-20T18:48:08.415Z,69.40
2019-03-20T18:50:37.829Z,69.70
2019-03-20T18:53:41.357Z,70.40
2019-03-20T18:55:56.099Z,70.60
2019-03-20T18:58:25.792Z,71.20
2019-03-20T19:01:02.643Z,71.60
2019-03-20T19:03:35.072Z,72.30
2019-03-20T19:06:23.080Z,72.10
2019-03-20T19:09:00.948Z,72.20
2019-03-20T19:11:31.007Z,72.30
2019-03-20T19:14:00.326Z,72.30
2019-03-20T19:16:29.633Z,72.40
2019-03-20T19:18:58.963Z,72.60
2019-03-20T19:21:28.334Z,72.80
2019-03-20T19:23:57.752Z,72.90
2019-03-20T19:26:27.210Z,72.60
2019-03-20T19:28:56.907Z,72.90
2019-03-20T19:31:26.222Z,72.90
2019-03-20T19:33:55.504Z,73.00
2019-03-20T19:36:25.150Z,73.30
2019-03-20T19:38:54.471Z,73.50
2019-03-20T19:41:23.772Z,73.60
2019-03-20T19:43:58.891Z,73.80
2019-03-20T19:46:28.994Z,74.10
2019-03-20T19:48:58.789Z,74.50
2019-03-20T19:51:28.499Z,75.10
2019-03-20T19:53:57.800Z,75.50
2019-03-20T19:56:27.389Z,76.00
2019-03-20T19:58:56.776Z,76.70
2019-03-20T20:01:26.344Z,76.90
2019-03-20T20:03:58.153Z,77.10
2019-03-20T20:06:28.598Z,77.50
2019-03-20T20:08:57.977Z,77.70
2019-03-20T20:11:27.560Z,78.10
2019-03-20T20:13:57.004Z,78.40
2019-03-20T20:16:26.461Z,78.50
2019-03-20T20:18:55.920Z,78.80
2019-03-20T20:21:25.804Z,78.90
2019-03-20T20:23:55.396Z,79.40
2019-03-20T20:26:25.385Z,79.40
2019-03-20T20:28:55.176Z,80.00
2019-03-20T20:31:24.580Z,80.30
2019-03-20T20:33:53.991Z,80.40
2019-03-20T20:36:23.421Z,80.60
2019-03-20T20:38:52.768Z,81.10
2019-03-20T20:41:22.454Z,81.00
2019-03-20T20:43:52.061Z,81.30
2019-03-20T20:46:21.786Z,81.60
2019-03-20T20:48:51.465Z,81.80
2019-03-20T20:51:21.190Z,81.90
2019-03-20T20:53:50.782Z,82.00
2019-03-20T20:56:22.548Z,82.90
2019-03-20T20:58:51.959Z,82.50
2019-03-20T21:01:21.645Z,82.70
2019-03-20T21:03:51.576Z,82.90
2019-03-20T21:06:21.200Z,83.20
2019-03-20T21:08:50.903Z,83.30
2019-03-20T21:11:20.579Z,83.50
2019-03-20T21:13:50.983Z,83.70
2019-03-20T21:16:20.949Z,83.90
2019-03-20T21:19:27.184Z,84.90
2019-03-20T21:22:41.079Z,84.30
2019-03-20T21:25:11.378Z,84.60
2019-03-20T21:28:09.461Z,84.80
2019-03-20T21:31:07.050Z,85.60
2019-03-20T21:34:05.370Z,85.00
2019-03-20T21:37:08.899Z,85.00
2019-03-20T21:39:38.832Z,85.00
2019-03-20T21:42:47.984Z,85.00
2019-03-20T21:45:59.406Z,85.30
2019-03-20T21:48:29.346Z,85.60
2019-03-20T21:51:17.120Z,85.90
2019-03-20T21:54:36.240Z,86.20
2019-03-20T21:57:32.590Z,86.30
2019-03-20T22:00:41.929Z,86.50
2019-03-20T22:03:11.857Z,86.50
2019-03-20T22:06:33.300Z,86.30
2019-03-20T22:09:13.647Z,86.50
2019-03-20T22:12:21.819Z,86.70
2019-03-20T22:14:59.377Z,87.10
2019-03-20T22:17:56.571Z,87.40
2019-03-20T22:20:48.937Z,87.50
2019-03-20T22:23:59.691Z,87.40
2019-03-20T22:27:01.773Z,87.50
2019-03-20T22:29:31.872Z,87.80
2019-03-20T22:32:32.556Z,87.70
2019-03-20T22:35:31.997Z,87.70
2019-03-20T22:38:03.237Z,87.90
2019-03-20T22:41:23.289Z,87.80
2019-03-20T22:44:03.386Z,87.80
2019-03-20T22:47:10.906Z,88.30
2019-03-20T22:50:26.506Z,88.20
2019-03-20T22:53:32.831Z,88.40
2019-03-20T22:57:10.728Z,88.50
2019-03-20T22:59:40.628Z,88.70
2019-03-20T23:02:24.670Z,89.00
2019-03-20T23:04:57.556Z,89.10
2019-03-20T23:07:27.649Z,89.10
2019-03-20T23:09:57.867Z,89.10
2019-03-20T23:12:28.020Z,89.30
2019-03-20T23:14:58.095Z,89.30
2019-03-20T23:17:27.996Z,89.30
2019-03-20T23:19:58.488Z,89.40
2019-03-20T23:22:28.575Z,89.60
2019-03-20T23:24:58.435Z,89.70
2019-03-20T23:27:30.524Z,89.90
2019-03-20T23:30:01.076Z,90.00
2019-03-20T23:32:31.507Z,90.10
2019-03-20T23:35:01.653Z,90.20
2019-03-20T23:37:33.312Z,90.20
2019-03-20T23:40:04.797Z,90.30
2019-03-20T23:42:34.895Z,90.40
2019-03-20T23:45:05.298Z,90.40
2019-03-20T23:48:00.327Z,90.50
2019-03-20T23:50:30.463Z,90.60
2019-03-20T23:53:00.297Z,90.70
2019-03-20T23:55:30.370Z,90.60
2019-03-20T23:58:00.443Z,90.60
